Time;durP1;ratioP1;P1;durP2;ratioP2;P2;SDS_P1;SDS_P2;PMS_P1;PMS_P2;Temp;Humidity;BMP_temperature;BMP_pressure;BME280_temperature;BME280_humidity;BME280_pressure;Samples;Min_cycle;Max_cycle;Signal;HPM_P1;HPM_P2
2021/11/12 00:14:25;;;;;;;0.60;0.60;;;;;;;7.19;69.88;100969.90;101523;1315;108818;-78
2021/11/12 00:16:54;;;;;;;0.60;0.60;;;;;;;7.22;69.79;100970.07;101264;1318;95339;-76
2021/11/12 00:19:22;;;;;;;0.60;0.60;;;;;;;7.29;69.69;100968.64;101442;1315;96459;-76
2021/11/12 00:21:50;;;;;;;0.60;0.60;;;;;;;7.29;69.96;100970.05;101294;1315;108222;-77
2021/11/12 00:24:18;;;;;;;0.60;0.60;;;;;;;7.26;70.19;100971.46;101409;1315;108831;-76
2021/11/12 00:26:46;;;;;;;0.60;0.60;;;;;;;7.25;70.34;100973.06;101446;1315;96930;-77
2021/11/12 00:29:15;;;;;;;0.60;0.60;;;;;;;7.21;70.19;100972.02;101301;1318;95779;-77
2021/11/12 00:31:50;;;;;;;0.50;0.50;;;;;;;7.17;70.37;100973.61;101279;1319;108032;-77
2021/11/12 00:40:08;;;;;;;0.60;0.60;;;;;;;7.28;70.65;100971.64;100664;1324;95405;-78
2021/11/12 00:42:53;;;;;;;0.60;0.60;;;;;;;7.30;70.47;100967.04;101505;1315;107881;-78
2021/11/12 00:45:24;;;;;;;0.60;0.60;;;;;;;7.21;70.83;100964.08;101478;1316;108618;-76
2021/11/12 00:55:45;;;;;;;0.60;0.60;;;;;;;7.08;71.84;100973.65;101214;1318;108985;-78
2021/11/12 00:58:17;;;;;;;0.60;0.60;;;;;;;7.12;71.67;100965.88;101498;1318;95786;-76
2021/11/12 01:00:45;;;;;;;0.60;0.60;;;;;;;7.12;71.62;100971.86;101267;1318;95700;-77
2021/11/12 01:03:13;;;;;;;0.70;0.70;;;;;;;7.15;71.38;100966.92;101612;1315;108890;-78
2021/11/12 01:05:42;;;;;;;0.60;0.60;;;;;;;7.15;71.54;100964.62;101257;1315;109751;-78
2021/11/12 01:08:10;;;;;;;0.50;0.50;;;;;;;7.17;71.43;100964.79;101288;1318;95354;-77
2021/11/12 01:10:37;;;;;;;0.50;0.50;;;;;;;7.24;71.38;100963.35;101303;1318;96042;-76
2021/11/12 01:13:05;;;;;;;0.50;0.50;;;;;;;7.19;71.61;100966.20;101271;1318;107797;-77
2021/11/12 01:15:34;;;;;;;0.60;0.60;;;;;;;7.23;71.42;100968.83;101442;1315;109616;-78
2021/11/12 01:18:02;;;;;;;0.50;0.50;;;;;;;7.30;71.51;100970.75;101588;1315;95497;-78
2021/11/12 01:20:30;;;;;;;0.60;0.60;;;;;;;7.30;71.44;100969.33;101495;1316;95288;-77
2021/11/12 01:22:58;;;;;;;0.60;0.60;;;;;;;7.26;71.71;100970.23;101520;1315;107795;-77
2021/11/12 01:25:25;;;;;;;0.60;0.60;;;;;;;7.26;71.62;100968.30;101385;1316;109014;-78
2021/11/12 01:27:53;;;;;;;0.50;0.50;;;;;;;7.34;71.32;100969.33;101314;1318;95704;-79
2021/11/12 01:30:21;;;;;;;0.50;0.50;;;;;;;7.33;71.23;100971.61;101425;1316;95218;-77
2021/11/12 01:32:49;;;;;;;0.50;0.50;;;;;;;7.41;71.49;100970.02;101268;1318;109087;-78
2021/11/12 01:35:19;;;;;;;0.60;0.60;;;;;;;7.49;71.12;100967.33;101435;1315;109780;-77
2021/11/12 01:37:47;;;;;;;0.50;0.50;;;;;;;7.46;70.82;100968.05;101325;1320;95741;-77
2021/11/12 01:40:24;;;;;;;0.50;0.50;;;;;;;7.45;71.19;100965.21;101334;1317;95275;-78
2021/11/12 01:43:19;;;;;;;0.60;0.60;;;;;;;7.56;71.07;100966.77;101467;1316;106685;-77
2021/11/12 01:54:45;;;;;;;0.60;0.60;;;;;;;7.61;70.78;100956.48;101471;1316;107975;-78
2021/11/12 01:56:58;;;;;;;0.60;0.60;;;;;;;7.60;70.93;100958.27;101115;1318;109717;-76
2021/11/12 01:59:25;;;;;;;0.60;0.60;;;;;;;7.68;70.82;100960.86;101516;1315;95685;-77
2021/11/12 02:01:59;;;;;;;0.50;0.50;;;;;;;7.75;70.57;100959.41;101722;1315;95585;-78
2021/11/12 02:04:30;;;;;;;0.50;0.50;;;;;;;7.59;70.95;100954.20;101643;1318;107957;-77
2021/11/12 02:07:00;;;;;;;0.50;0.50;;;;;;;7.54;71.27;100963.59;101775;1319;106774;-79
2021/11/12 02:09:28;;;;;;;0.50;0.50;;;;;;;7.44;71.40;100969.48;101543;1315;95291;-76
2021/11/12 02:12:27;;;;;;;0.60;0.60;;;;;;;7.41;71.68;100969.13;101507;1316;95264;-78
2021/11/12 02:14:57;;;;;;;0.50;0.50;;;;;;;7.50;71.96;100977.20;101514;1316;107863;-77
2021/11/12 02:17:29;;;;;;;0.50;0.50;;;;;;;7.47;71.74;100978.64;101737;1315;109123;-78
2021/11/12 02:20:05;;;;;;;0.50;0.50;;;;;;;7.47;71.85;100976.86;101190;1315;96081;-78
2021/11/12 02:22:34;;;;;;;0.60;0.60;;;;;;;7.48;72.22;100980.58;101481;1319;96121;-79
2021/11/12 02:25:10;;;;;;;0.60;0.60;;;;;;;7.48;72.07;100985.52;101482;1316;107877;-78
2021/11/12 02:30:10;;;;;;;0.60;0.60;;;;;;;7.61;71.82;100989.00;101645;1314;96551;-78
2021/11/12 02:32:38;;;;;;;0.60;0.60;;;;;;;7.66;71.80;100992.16;101404;1316;95249;-78
2021/11/12 02:35:06;;;;;;;0.60;0.60;;;;;;;7.67;71.69;100992.15;101318;1318;106627;-79
2021/11/12 02:37:34;;;;;;;0.60;0.60;;;;;;;7.65;71.68;100992.70;101349;1316;109760;-80
2021/11/12 02:40:03;;;;;;;0.60;0.60;;;;;;;7.67;71.70;100996.39;101342;1316;95373;-78
2021/11/12 02:42:31;;;;;;;0.60;0.60;;;;;;;7.76;71.76;100989.63;101506;1315;95206;-78
2021/11/12 02:44:59;;;;;;;0.60;0.60;;;;;;;7.81;71.27;100987.30;101483;1315;107816;-78
2021/11/12 02:47:27;;;;;;;0.60;0.60;;;;;;;7.81;71.39;100989.27;101242;1315;108780;-78
2021/11/12 02:49:57;;;;;;;0.60;0.60;;;;;;;7.77;71.34;100981.85;101564;1315;95176;-78
2021/11/12 02:52:25;;;;;;;0.60;0.60;;;;;;;7.71;71.32;100979.41;101305;1317;95697;-77
2021/11/12 02:54:53;;;;;;;0.50;0.50;;;;;;;7.74;71.55;100980.27;101399;1317;108097;-78
2021/11/12 02:57:26;;;;;;;0.50;0.50;;;;;;;7.74;71.42;100977.27;101502;1316;108840;-78
2021/11/12 02:59:55;;;;;;;0.50;0.50;;;;;;;7.74;71.67;100984.36;101328;1321;96148;-77
2021/11/12 03:02:23;;;;;;;0.50;0.50;;;;;;;7.77;71.54;100982.38;101476;1316;95246;-78
2021/11/12 03:04:51;;;;;;;0.50;0.50;;;;;;;7.85;71.54;100981.98;101520;1315;107026;-77
2021/11/12 03:07:19;;;;;;;0.50;0.50;;;;;;;7.86;71.56;100981.27;101509;1316;108422;-78
2021/11/12 03:09:46;;;;;;;0.50;0.50;;;;;;;7.87;71.58;100981.97;101530;1315;96457;-78
2021/11/12 03:12:14;;;;;;;0.50;0.50;;;;;;;7.86;71.41;100983.73;101488;1316;96347;-78
2021/11/12 03:14:42;;;;;;;0.60;0.60;;;;;;;7.76;71.64;100983.45;101245;1320;107885;-77
2021/11/12 03:17:10;;;;;;;0.50;0.50;;;;;;;7.76;71.97;100989.81;101500;1316;108822;-78
2021/11/12 03:19:38;;;;;;;0.50;0.50;;;;;;;7.79;71.79;100986.44;101276;1320;95282;-77
2021/11/12 03:22:09;;;;;;;0.50;0.50;;;;;;;7.85;71.77;100990.99;101289;1320;95347;-79
2021/11/12 03:24:42;;;;;;;0.50;0.50;;;;;;;7.87;71.80;100987.80;101542;1315;107858;-78
2021/11/12 03:30:06;;;;;;;0.40;0.40;;;;;;;8.01;71.48;100987.02;101477;1317;95648;-77
2021/11/12 04:00:16;;;;;;;0.50;0.50;;;;;;;7.94;72.12;101000.49;101442;1315;109001;-79
2021/11/12 04:03:01;;;;;;;0.50;0.50;;;;;;;7.91;71.94;101011.13;101470;1316;95210;-78
2021/11/12 04:22:14;;;;;;;0.50;0.50;;;;;;;8.01;72.24;101013.36;101515;1316;109799;-78
2021/11/12 04:49:19;;;;;;;0.50;0.40;;;;;;;8.30;71.76;101010.17;101521;1315;95231;-77
2021/11/12 05:14:12;;;;;;;0.50;0.40;;;;;;;8.49;71.58;101025.28;101391;1320;108829;-77
2021/11/12 05:50:33;;;;;;;0.50;0.50;;;;;;;8.48;71.87;101050.24;101482;1315;109825;-78
2021/11/12 05:55:49;;;;;;;0.50;0.40;;;;;;;8.58;71.76;101052.65;101350;1319;96591;-77
2021/11/12 05:58:17;;;;;;;0.50;0.50;;;;;;;8.61;71.79;101053.87;101275;1316;108264;-76
2021/11/12 06:00:45;;;;;;;0.40;0.40;;;;;;;8.54;71.70;101053.20;101465;1316;110276;-77
2021/11/12 06:03:13;;;;;;;0.50;0.40;;;;;;;8.49;71.96;101056.08;101534;1316;95175;-77
2021/11/12 06:05:41;;;;;;;0.50;0.50;;;;;;;8.50;72.17;101064.21;101524;1316;96583;-78
2021/11/12 06:08:08;;;;;;;0.50;0.50;;;;;;;8.58;72.20;101065.91;101517;1315;106460;-77
2021/11/12 06:10:36;;;;;;;0.50;0.40;;;;;;;8.58;71.63;101067.16;101324;1318;107595;-78
2021/11/12 06:13:04;;;;;;;0.40;0.40;;;;;;;8.50;72.14;101075.55;101555;1315;95419;-77
2021/11/12 06:15:32;;;;;;;0.50;0.40;;;;;;;8.50;72.03;101078.02;101464;1315;95511;-78
2021/11/12 06:18:00;;;;;;;0.40;0.40;;;;;;;8.53;72.27;101074.46;101542;1316;107897;-78
2021/11/12 06:20:33;;;;;;;0.50;0.40;;;;;;;8.56;72.00;101082.58;101521;1315;108728;-80
2021/11/12 06:23:01;;;;;;;0.40;0.40;;;;;;;8.64;72.22;101082.52;101291;1318;95258;-78
2021/11/12 06:25:29;;;;;;;0.50;0.40;;;;;;;8.72;71.85;101083.88;101288;1316;95335;-77
2021/11/12 06:27:57;;;;;;;0.50;0.40;;;;;;;8.76;71.68;101089.15;101280;1316;108478;-78
2021/11/12 06:30:26;;;;;;;0.40;0.40;;;;;;;8.78;71.66;101090.90;101409;1315;108870;-77
2021/11/12 06:32:53;;;;;;;0.50;0.50;;;;;;;8.86;71.63;101084.29;101254;1316;95797;-77
2021/11/12 06:35:24;;;;;;;0.50;0.40;;;;;;;8.87;71.38;101082.16;101500;1316;95299;-77
2021/11/12 06:37:52;;;;;;;0.50;0.40;;;;;;;8.84;71.45;101086.44;101462;1315;108870;-77
2021/11/12 06:40:21;;;;;;;0.50;0.50;;;;;;;8.72;71.54;101088.30;101555;1315;109422;-78
2021/11/12 06:43:02;;;;;;;0.50;0.40;;;;;;;8.62;72.14;101082.89;101101;1321;95329;-79
2021/11/12 06:51:05;;;;;;;0.40;0.40;;;;;;;8.68;72.04;101087.98;101468;1316;108397;-77
2021/11/12 06:53:33;;;;;;;0.50;0.40;;;;;;;8.70;71.99;101089.91;101469;1315;96560;-77
2021/11/12 06:56:02;;;;;;;0.40;0.40;;;;;;;8.69;72.10;101099.13;101447;1315;96160;-78
2021/11/12 06:58:30;;;;;;;0.40;0.40;;;;;;;8.77;71.93;101098.18;101518;1316;108384;-78
2021/11/12 07:00:58;;;;;;;0.50;0.40;;;;;;;8.81;71.95;101097.62;101548;1316;109500;-77
2021/11/12 07:03:27;;;;;;;0.50;0.50;;;;;;;8.81;72.00;101101.69;101305;1316;95321;-78
2021/11/12 07:05:55;;;;;;;0.40;0.40;;;;;;;8.81;71.82;101104.88;101244;1316;95811;-78
2021/11/12 07:08:23;;;;;;;0.40;0.40;;;;;;;8.75;72.16;101103.51;101456;1316;107998;-78
2021/11/12 07:10:52;;;;;;;0.50;0.40;;;;;;;8.79;72.10;101102.60;101366;1316;109633;-78
2021/11/12 07:13:24;;;;;;;0.40;0.40;;;;;;;8.86;72.30;101106.08;101333;1317;95896;-77
2021/11/12 07:15:52;;;;;;;0.40;0.40;;;;;;;8.89;72.04;101103.22;101516;1317;95185;-77
2021/11/12 07:18:21;;;;;;;0.50;0.50;;;;;;;8.86;71.77;101106.45;101429;1315;109905;-77
2021/11/12 07:20:50;;;;;;;0.50;0.40;;;;;;;8.79;71.93;101102.41;101833;1316;108462;-79
2021/11/12 07:23:19;;;;;;;0.50;0.40;;;;;;;8.79;72.34;101103.13;101472;1316;95861;-77
2021/11/12 07:25:48;;;;;;;0.50;0.50;;;;;;;8.90;72.38;101106.22;101615;1316;95253;-77
2021/11/12 07:28:16;;;;;;;0.40;0.40;;;;;;;9.04;72.11;101102.38;101374;1316;107888;-76
2021/11/12 07:30:45;;;;;;;0.40;0.40;;;;;;;9.10;71.68;101104.47;101480;1315;106431;-77
2021/11/12 07:33:15;;;;;;;0.40;0.40;;;;;;;9.00;71.69;101102.42;102013;1316;95716;-77
2021/11/12 07:35:49;;;;;;;0.50;0.50;;;;;;;9.00;71.96;101100.30;101505;1315;96762;-77
2021/11/12 07:38:23;;;;;;;0.40;0.40;;;;;;;9.02;71.83;101100.98;101474;1316;107870;-77
2021/11/12 07:48:40;;;;;;;0.40;0.40;;;;;;;9.10;71.92;101100.21;101523;1316;108596;-78
2021/11/12 07:51:09;;;;;;;0.40;0.40;;;;;;;9.08;71.84;101100.05;101418;1317;108517;-77
2021/11/12 07:53:37;;;;;;;0.50;0.40;;;;;;;9.09;71.86;101103.58;101475;1315;96441;-78
2021/11/12 07:56:05;;;;;;;0.40;0.40;;;;;;;9.09;71.65;101097.02;101460;1315;96889;-78
2021/11/12 07:58:33;;;;;;;0.40;0.40;;;;;;;9.16;71.94;101106.00;101740;1315;107935;-77
2021/11/12 08:01:03;;;;;;;0.40;0.40;;;;;;;9.28;71.86;101108.55;101570;1316;107724;-77
2021/11/12 08:03:32;;;;;;;0.40;0.40;;;;;;;9.36;71.51;101113.61;101682;1316;122531;-79
2021/11/12 08:06:02;;;;;;;0.40;0.40;;;;;;;9.40;71.26;101111.97;101342;1321;96508;-78
2021/11/12 08:08:34;;;;;;;0.50;0.50;;;;;;;9.37;71.23;101113.95;101578;1316;109155;-78
2021/11/12 08:11:52;;;;;;;0.40;0.40;;;;;;;9.34;71.53;101117.35;101759;1315;109454;-78
2021/11/12 08:14:01;;;;;;;0.40;0.40;;;;;;;9.39;71.39;101117.65;101620;1315;95281;-77
2021/11/12 08:22:26;;;;;;;0.40;0.30;;;;;;;9.52;71.26;101111.33;101407;1316;107839;-77
2021/11/12 08:25:11;;;;;;;0.40;0.40;;;;;;;9.58;71.47;101113.04;101451;1316;95276;-77
2021/11/12 08:41:37;;;;;;;0.40;0.30;;;;;;;9.73;71.07;101108.43;101231;1316;109131;-79
2021/11/12 08:47:05;;;;;;;0.40;0.30;;;;;;;9.97;70.84;101115.43;101063;1315;95302;-78
2021/11/12 08:49:35;;;;;;;0.40;0.30;;;;;;;10.10;70.72;101114.56;101543;1316;95258;-78
2021/11/12 08:52:06;;;;;;;0.40;0.30;;;;;;;10.21;70.21;101108.39;101536;1315;107908;-78
2021/11/12 08:54:39;;;;;;;0.40;0.30;;;;;;;10.18;70.18;101105.40;101540;1316;108802;-77
2021/11/12 08:57:11;;;;;;;0.40;0.40;;;;;;;10.17;70.34;101107.52;101484;1315;97010;-78
2021/11/12 08:59:40;;;;;;;0.40;0.30;;;;;;;10.21;70.06;101107.67;101270;1318;96525;-78
2021/11/12 09:02:09;;;;;;;0.40;0.30;;;;;;;10.14;69.79;101111.30;101342;1318;108922;-78
2021/11/12 09:04:38;;;;;;;0.40;0.30;;;;;;;10.14;69.94;101112.75;101586;1316;107143;-77
2021/11/12 09:07:08;;;;;;;0.40;0.40;;;;;;;10.17;70.16;101111.45;101510;1315;95877;-77
2021/11/12 09:09:37;;;;;;;0.40;0.40;;;;;;;10.19;70.19;101115.67;101422;1315;95261;-78
2021/11/12 09:12:07;;;;;;;0.40;0.30;;;;;;;10.28;69.96;101118.58;101447;1315;107563;-77
2021/11/12 09:14:40;;;;;;;0.40;0.30;;;;;;;10.32;69.66;101118.70;101597;1315;109693;-77
2021/11/12 09:17:09;;;;;;;0.40;0.30;;;;;;;10.32;69.98;101116.94;101487;1315;96688;-78
2021/11/12 09:19:46;;;;;;;0.40;0.40;;;;;;;10.40;69.71;101118.81;101341;1319;96151;-78
2021/11/12 09:22:16;;;;;;;0.40;0.30;;;;;;;10.40;69.51;101116.87;101318;1316;108410;-77
2021/11/12 09:24:44;;;;;;;0.40;0.30;;;;;;;10.38;69.29;101108.52;101357;1318;109871;-77
2021/11/12 09:27:12;;;;;;;0.40;0.30;;;;;;;10.20;69.39;101113.18;101322;1318;96309;-78
2021/11/12 09:29:41;;;;;;;0.40;0.30;;;;;;;10.12;69.63;101115.42;101553;1315;95266;-77
2021/11/12 09:32:10;;;;;;;0.40;0.40;;;;;;;10.02;69.82;101117.84;101542;1315;108187;-78
2021/11/12 09:34:38;;;;;;;0.40;0.30;;;;;;;9.99;70.21;101119.49;101230;1318;107892;-78
2021/11/12 09:37:10;;;;;;;0.50;0.40;;;;;;;10.04;70.08;101113.73;101510;1315;95676;-77
2021/11/12 09:39:40;;;;;;;0.40;0.40;;;;;;;10.09;70.21;101110.30;101459;1315;95198;-77
2021/11/12 09:42:09;;;;;;;0.40;0.40;;;;;;;10.12;70.07;101107.97;101429;1318;107894;-76
2021/11/12 09:44:37;;;;;;;0.40;0.30;;;;;;;10.19;70.03;101109.99;101407;1315;110247;-76
2021/11/12 09:47:07;;;;;;;0.40;0.30;;;;;;;10.19;70.00;101114.25;101204;1315;95191;-77
2021/11/12 09:49:35;;;;;;;0.40;0.40;;;;;;;10.18;70.08;101111.09;101266;1318;96814;-78
2021/11/12 09:52:06;;;;;;;0.40;0.30;;;;;;;10.21;69.75;101107.84;101300;1315;109618;-78
2021/11/12 09:54:33;;;;;;;0.40;0.30;;;;;;;10.30;69.92;101105.25;101406;1315;111023;-78
2021/11/12 09:57:01;;;;;;;0.40;0.30;;;;;;;10.33;69.52;101100.95;101423;1315;95282;-76
2021/11/12 09:59:33;;;;;;;0.40;0.40;;;;;;;10.37;69.60;101105.54;101326;1317;95279;-78
2021/11/12 10:02:02;;;;;;;0.40;0.40;;;;;;;10.37;69.46;101095.95;101289;1318;109361;-77
2021/11/12 10:04:30;;;;;;;0.40;0.30;;;;;;;10.42;69.58;101097.30;101646;1312;109306;-77
2021/11/12 10:06:59;;;;;;;0.40;0.30;;;;;;;10.36;69.31;101101.09;101448;1315;96367;-78
2021/11/12 10:09:27;;;;;;;0.40;0.40;;;;;;;10.27;69.47;101104.21;101452;1315;96711;-76
2021/11/12 10:11:57;;;;;;;0.40;0.30;;;;;;;10.37;69.82;101098.25;101308;1316;107742;-77
2021/11/12 10:14:48;;;;;;;0.40;0.30;;;;;;;10.42;68.98;101098.91;101525;1315;108794;-77
2021/11/12 10:17:18;;;;;;;0.40;0.30;;;;;;;10.37;69.40;101104.28;101460;1315;95614;-77
2021/11/12 10:19:53;;;;;;;0.50;0.40;;;;;;;10.35;69.38;101100.58;101764;1316;95743;-77
2021/11/12 10:22:28;;;;;;;0.40;0.40;;;;;;;10.32;69.38;101096.88;101425;1315;108715;-76
2021/11/12 10:25:05;;;;;;;0.40;0.30;;;;;;;10.31;69.36;101105.41;101442;1315;109055;-76
2021/11/12 10:27:34;;;;;;;0.40;0.30;;;;;;;10.27;69.47;101099.25;101312;1318;95147;-77
2021/11/12 10:30:14;;;;;;;0.40;0.30;;;;;;;10.21;69.52;101099.86;101378;1315;96694;-77
2021/11/12 10:32:43;;;;;;;0.40;0.30;;;;;;;10.25;70.04;101093.23;101472;1316;107731;-77
2021/11/12 10:35:21;;;;;;;0.40;0.30;;;;;;;10.39;69.89;101090.77;101446;1315;109798;-78
2021/11/12 10:37:50;;;;;;;0.40;0.30;;;;;;;10.40;69.67;101088.80;101256;1318;95611;-77
2021/11/12 10:40:20;;;;;;;0.40;0.30;;;;;;;10.35;69.46;101086.20;101311;1318;96115;-78
2021/11/12 10:46:05;;;;;;;0.40;0.30;;;;;;;10.35;69.83;101085.67;101407;1315;108660;-78
2021/11/12 10:48:34;;;;;;;0.40;0.40;;;;;;;10.47;69.55;101084.62;101265;1315;96232;-78
2021/11/12 10:51:19;;;;;;;0.40;0.30;;;;;;;10.54;69.24;101082.04;101300;1318;95169;-78
2021/11/12 10:53:50;;;;;;;0.40;0.40;;;;;;;10.55;69.15;101077.92;101296;1315;108705;-78
2021/11/12 10:56:21;;;;;;;0.40;0.30;;;;;;;10.64;69.10;101080.09;101419;1315;108592;-77
2021/11/12 10:59:00;;;;;;;0.40;0.30;;;;;;;10.67;68.94;101082.54;101520;1315;95261;-78
2021/11/12 11:01:37;;;;;;;0.40;0.30;;;;;;;10.71;68.84;101075.38;101184;1316;95400;-78
2021/11/12 11:04:26;;;;;;;0.40;0.30;;;;;;;10.71;68.80;101071.63;101300;1315;107917;-78
2021/11/12 11:06:54;;;;;;;0.40;0.30;;;;;;;10.73;68.72;101067.89;101381;1315;109316;-78
2021/11/12 11:09:36;;;;;;;0.40;0.30;;;;;;;10.74;68.89;101066.27;101372;1318;95234;-76
2021/11/12 11:12:07;;;;;;;0.40;0.30;;;;;;;10.78;68.79;101064.05;101189;1319;95705;-78
2021/11/12 11:14:35;;;;;;;0.40;0.30;;;;;;;10.81;68.58;101065.80;101558;1315;108708;-77
2021/11/12 11:17:26;;;;;;;0.40;0.20;;;;;;;10.80;68.68;101069.37;101469;1315;109848;-77
2021/11/12 11:19:54;;;;;;;0.40;0.30;;;;;;;10.83;68.63;101065.58;101314;1318;95395;-77
2021/11/12 11:22:24;;;;;;;0.40;0.30;;;;;;;10.81;68.49;101062.08;101554;1315;95151;-77
2021/11/12 11:24:51;;;;;;;0.40;0.30;;;;;;;10.82;68.73;101056.54;101273;1318;108423;-78
2021/11/12 11:27:19;;;;;;;0.40;0.30;;;;;;;10.89;68.88;101056.77;101487;1315;108288;-77
2021/11/12 11:29:47;;;;;;;0.40;0.30;;;;;;;11.05;68.47;101061.50;101268;1316;95764;-77
2021/11/12 11:32:15;;;;;;;0.40;0.30;;;;;;;11.03;68.23;101063.65;101290;1318;95331;-75
2021/11/12 11:34:46;;;;;;;0.40;0.30;;;;;;;11.02;68.21;101061.36;101448;1316;108144;-77
2021/11/12 11:37:14;;;;;;;0.40;0.30;;;;;;;11.01;68.18;101059.77;101444;1315;109902;-77
2021/11/12 11:39:44;;;;;;;0.40;0.30;;;;;;;11.08;68.05;101058.23;101494;1315;95787;-77
2021/11/12 11:42:13;;;;;;;0.40;0.30;;;;;;;11.10;67.67;101054.81;101516;1315;95238;-77
2021/11/12 11:44:42;;;;;;;0.40;0.30;;;;;;;11.00;67.99;101049.83;101046;1315;108720;-78
2021/11/12 11:47:12;;;;;;;0.40;0.30;;;;;;;11.06;68.04;101050.80;101592;1315;109206;-78
2021/11/12 11:49:49;;;;;;;0.40;0.30;;;;;;;10.95;67.78;101049.75;101577;1316;95241;-78
2021/11/12 11:52:28;;;;;;;0.40;0.30;;;;;;;10.83;68.33;101046.58;101622;1315;95193;-77
2021/11/12 11:54:56;;;;;;;0.40;0.30;;;;;;;10.83;68.37;101046.75;101465;1315;109347;-78
2021/11/12 11:57:27;;;;;;;0.40;0.30;;;;;;;10.71;68.56;101046.08;101472;1315;108492;-78
2021/11/12 12:00:21;;;;;;;0.40;0.30;;;;;;;10.72;68.84;101043.20;101539;1315;97093;-77
2021/11/12 12:03:22;;;;;;;0.40;0.30;;;;;;;10.82;68.77;101037.52;101236;1318;95524;-77
2021/11/12 12:06:11;;;;;;;0.40;0.30;;;;;;;10.75;68.50;101037.83;101466;1315;107901;-78
2021/11/12 12:09:06;;;;;;;0.40;0.30;;;;;;;10.69;68.98;101036.16;101300;1316;110033;-77
2021/11/12 12:11:50;;;;;;;0.40;0.30;;;;;;;10.82;68.94;101032.39;101371;1314;96521;-77
2021/11/12 12:14:32;;;;;;;0.40;0.30;;;;;;;10.91;68.85;101033.11;101313;1317;95368;-76
2021/11/12 12:17:10;;;;;;;0.40;0.30;;;;;;;10.86;68.50;101032.30;101429;1316;107921;-78
2021/11/12 12:19:58;;;;;;;0.40;0.30;;;;;;;10.94;68.66;101034.48;101450;1315;109328;-77
2021/11/12 12:41:36;;;;;;;0.40;0.30;;;;;;;10.91;68.59;101022.63;101461;1316;109004;-78
2021/11/12 13:24:36;;;;;;;0.40;0.30;;;;;;;10.96;68.08;101005.14;101335;1315;96306;-78
2021/11/12 13:27:06;;;;;;;0.50;0.50;;;;;;;10.93;68.46;101006.61;101496;1315;108959;-77
2021/11/12 13:29:37;;;;;;;0.40;0.30;;;;;;;11.07;68.33;101006.00;101214;1318;108602;-77
2021/11/12 13:32:06;;;;;;;0.40;0.30;;;;;;;11.21;68.20;101007.35;101354;1317;95718;-77
2021/11/12 13:34:45;;;;;;;0.40;0.30;;;;;;;11.29;67.90;101008.96;101479;1315;96183;-77
2021/11/12 13:37:50;;;;;;;0.40;0.30;;;;;;;11.36;67.83;101006.51;101553;1315;108099;-77
2021/11/12 13:40:18;;;;;;;0.40;0.30;;;;;;;11.41;67.59;101005.72;101446;1315;108803;-77
2021/11/12 13:42:48;;;;;;;0.40;0.30;;;;;;;11.44;67.38;101009.20;101523;1315;95281;-77
2021/11/12 13:45:22;;;;;;;0.40;0.30;;;;;;;11.39;67.53;101009.48;101658;1315;95259;-78
2021/11/12 13:48:09;;;;;;;0.40;0.30;;;;;;;11.36;67.44;101013.80;101511;1318;108930;-78
2021/11/12 13:50:50;;;;;;;0.40;0.30;;;;;;;11.32;67.35;101016.38;101303;1315;108529;-77
2021/11/12 13:53:18;;;;;;;0.40;0.30;;;;;;;11.26;67.19;101017.39;101490;1315;95710;-77
2021/11/12 13:55:46;;;;;;;0.40;0.30;;;;;;;11.18;67.87;101016.13;101508;1315;96163;-76
2021/11/12 13:58:17;;;;;;;0.40;0.30;;;;;;;11.27;67.49;101019.48;101296;1318;109377;-78
2021/11/12 14:00:45;;;;;;;0.40;0.30;;;;;;;11.32;67.42;101023.85;101425;1317;106635;-77
2021/11/12 14:03:21;;;;;;;0.40;0.30;;;;;;;11.34;67.29;101025.41;101466;1315;95195;-78
2021/11/12 14:05:53;;;;;;;0.40;0.30;;;;;;;11.36;67.15;101027.31;101456;1315;95276;-77
2021/11/12 14:08:21;;;;;;;0.40;0.30;;;;;;;11.44;67.28;101022.72;101510;1315;107952;-78
2021/11/12 14:10:51;;;;;;;0.40;0.30;;;;;;;11.54;66.92;101018.79;101496;1315;110287;-76
2021/11/12 14:13:21;;;;;;;0.40;0.30;;;;;;;11.61;66.70;101013.66;101350;1319;95896;-78
2021/11/12 14:16:03;;;;;;;0.40;0.30;;;;;;;11.64;66.56;101019.64;101455;1315;95280;-77
2021/11/12 14:18:57;;;;;;;0.40;0.30;;;;;;;11.65;66.42;101019.45;101434;1315;107860;-78
2021/11/12 14:21:35;;;;;;;0.40;0.30;;;;;;;11.70;66.26;101019.54;101292;1315;109242;-78
2021/11/12 14:24:21;;;;;;;0.40;0.30;;;;;;;11.75;66.04;101019.61;101263;1316;96283;-78
2021/11/12 14:38:22;;;;;;;0.40;0.30;;;;;;;11.73;66.08;101037.25;101493;1315;95791;-78
2021/11/12 14:46:29;;;;;;;0.40;0.30;;;;;;;11.76;65.63;101033.27;101515;1315;96209;-78
2021/11/12 14:54:47;;;;;;;0.40;0.30;;;;;;;11.64;65.81;101029.42;101480;1315;108821;-77
2021/11/12 14:58:01;;;;;;;0.40;0.30;;;;;;;11.58;65.99;101029.55;101486;1315;95255;-78
2021/11/12 15:00:13;;;;;;;0.40;0.30;;;;;;;11.63;65.97;101032.29;101343;1316;95373;-78
2021/11/12 15:02:41;;;;;;;0.40;0.30;;;;;;;11.64;65.89;101030.15;101559;1315;108941;-78
2021/11/12 15:05:11;;;;;;;0.40;0.30;;;;;;;11.63;65.78;101028.90;101424;1315;109613;-77
2021/11/12 15:07:45;;;;;;;0.40;0.30;;;;;;;11.68;65.80;101030.42;101385;1318;95746;-77
2021/11/12 15:10:16;;;;;;;0.40;0.40;;;;;;;11.71;65.62;101031.95;101448;1314;95794;-78
2021/11/12 15:12:51;;;;;;;0.40;0.30;;;;;;;11.73;65.66;101033.70;101422;1315;107873;-77
2021/11/12 15:15:19;;;;;;;0.40;0.30;;;;;;;11.71;65.50;101040.66;101484;1315;108363;-77
2021/11/12 15:17:50;;;;;;;0.40;0.30;;;;;;;11.69;65.55;101044.43;101261;1318;95795;-78
2021/11/12 15:20:19;;;;;;;0.40;0.30;;;;;;;11.70;65.43;101044.41;101429;1315;95277;-76
2021/11/12 15:25:41;;;;;;;0.40;0.30;;;;;;;11.71;65.58;101047.07;101396;1315;109733;-78
2021/11/12 15:33:34;;;;;;;0.40;0.30;;;;;;;11.76;65.23;101050.19;101233;1316;107837;-78
2021/11/12 15:36:06;;;;;;;0.40;0.30;;;;;;;11.75;65.46;101053.74;101490;1315;110567;-78
2021/11/12 15:38:38;;;;;;;0.40;0.30;;;;;;;11.77;65.22;101052.12;101309;1318;95445;-78
2021/11/12 15:41:18;;;;;;;0.40;0.20;;;;;;;11.71;65.26;101051.52;101524;1315;95398;-78
2021/11/12 15:44:17;;;;;;;0.40;0.30;;;;;;;11.67;65.34;101052.86;101237;1315;107445;-79
2021/11/12 15:47:03;;;;;;;0.40;0.30;;;;;;;11.66;65.57;101053.58;101298;1318;110030;-78
2021/11/12 15:49:31;;;;;;;0.40;0.30;;;;;;;11.58;65.66;101056.75;101468;1315;95787;-77
2021/11/12 15:52:17;;;;;;;0.40;0.30;;;;;;;11.57;65.89;101058.23;101525;1315;95277;-78
2021/11/12 16:13:54;;;;;;;0.40;0.30;;;;;;;11.74;65.34;101063.37;101334;1316;95796;-78
2021/11/12 16:16:39;;;;;;;0.40;0.30;;;;;;;11.71;65.40;101063.96;101550;1316;108825;-77
2021/11/12 16:19:25;;;;;;;0.40;0.30;;;;;;;11.74;65.39;101064.61;101430;1315;108788;-77
2021/11/12 16:24:44;;;;;;;0.40;0.30;;;;;;;11.67;65.46;101070.80;101453;1315;95517;-78
2021/11/12 16:27:12;;;;;;;0.40;0.30;;;;;;;11.52;65.75;101076.08;101223;1318;108866;-78
2021/11/12 16:29:42;;;;;;;0.40;0.40;;;;;;;11.52;65.99;101074.48;101417;1315;109416;-77
2021/11/12 16:32:19;;;;;;;0.40;0.30;;;;;;;11.52;65.93;101080.88;101462;1318;95787;-78
2021/11/12 16:34:50;;;;;;;0.40;0.30;;;;;;;11.47;66.07;101079.74;101234;1321;95754;-77
2021/11/12 16:37:20;;;;;;;0.40;0.30;;;;;;;11.37;66.32;101079.74;101216;1318;107946;-76
2021/11/12 16:40:57;;;;;;;0.40;0.30;;;;;;;11.49;66.45;101081.12;101274;1318;108832;-78
2021/11/12 16:43:06;;;;;;;0.40;0.30;;;;;;;11.60;65.85;101079.31;101406;1315;96779;-77
2021/11/12 16:45:50;;;;;;;0.40;0.30;;;;;;;11.50;66.13;101074.88;101514;1315;95272;-76
2021/11/12 17:04:32;;;;;;;0.40;0.30;;;;;;;11.75;65.26;101077.94;101311;1316;95246;-79
2021/11/12 17:07:10;;;;;;;0.50;0.40;;;;;;;11.62;65.57;101080.34;101303;1318;95533;-78
2021/11/12 17:20:44;;;;;;;0.40;0.30;;;;;;;11.57;66.04;101080.26;101305;1317;108237;-78
2021/11/12 17:23:08;;;;;;;0.40;0.30;;;;;;;11.48;65.88;101079.91;101202;1316;109805;-77
2021/11/12 17:47:50;;;;;;;0.40;0.30;;;;;;;10.64;68.02;101078.52;101447;1315;95232;-78
2021/11/12 17:50:31;;;;;;;0.40;0.30;;;;;;;10.54;68.26;101072.80;101248;1318;95341;-77